Time;durP1;ratioP1;P1;durP2;ratioP2;P2;SDS_P1;SDS_P2;PMS_P1;PMS_P2;Temp;Humidity;BMP_temperature;BMP_pressure;BME280_temperature;BME280_humidity;BME280_pressure;Samples;Min_cycle;Max_cycle;Signal;HPM_P1;HPM_P2
2023/07/01 00:01:32;;;;;;;3.37;2.90;;;;;;;;;;5011147;28;20611;-68
2023/07/01 00:04:00;;;;;;;4.00;3.70;;;;;;;;;;5012268;28;20841;-68
2023/07/01 00:06:28;;;;;;;4.33;3.37;;;;;;;;;;5002186;28;20670;-68
2023/07/01 00:08:57;;;;;;;3.63;3.13;;;;;;;;;;5011946;28;20639;-68
2023/07/01 00:11:25;;;;;;;3.47;3.20;;;;;;;;;;5012708;28;20668;-68
2023/07/01 00:13:53;;;;;;;3.60;3.37;;;;;;;;;;5012841;28;20661;-68
2023/07/01 00:16:21;;;;;;;4.10;3.40;;;;;;;;;;5012726;28;20632;-68
2023/07/01 00:18:53;;;;;;;3.30;3.00;;;;;;;;;;5011511;28;20620;-69
2023/07/01 00:21:21;;;;;;;3.23;2.80;;;;;;;;;;5013106;28;20613;-68
2023/07/01 00:23:50;;;;;;;3.77;3.47;;;;;;;;;;5012545;28;20682;-68
2023/07/01 00:26:18;;;;;;;4.20;3.90;;;;;;;;;;5012561;28;20629;-68
2023/07/01 00:28:46;;;;;;;3.93;3.00;;;;;;;;;;5012559;28;20639;-68
2023/07/01 00:31:14;;;;;;;3.50;3.30;;;;;;;;;;5012347;28;21205;-67
2023/07/01 00:33:42;;;;;;;3.47;3.17;;;;;;;;;;5011808;28;20659;-69
2023/07/01 00:36:12;;;;;;;4.67;3.60;;;;;;;;;;5006594;28;20692;-68
2023/07/01 00:38:41;;;;;;;4.03;3.70;;;;;;;;;;4992674;28;20592;-68
2023/07/01 00:41:09;;;;;;;3.60;3.40;;;;;;;;;;5007062;28;20617;-68
2023/07/01 00:43:37;;;;;;;4.90;3.20;;;;;;;;;;5011998;28;20610;-68
2023/07/01 00:46:05;;;;;;;4.20;3.80;;;;;;;;;;5013033;28;20580;-67
2023/07/01 00:48:33;;;;;;;4.47;4.07;;;;;;;;;;5010746;28;20643;-68
2023/07/01 00:51:02;;;;;;;5.23;3.20;;;;;;;;;;5012369;28;20566;-68
2023/07/01 00:53:31;;;;;;;7.33;4.00;;;;;;;;;;4997186;28;20622;-68
2023/07/01 00:55:59;;;;;;;3.87;3.57;;;;;;;;;;4993018;28;20613;-68
2023/07/01 00:58:27;;;;;;;4.00;3.70;;;;;;;;;;4994708;28;20625;-67
2023/07/01 01:00:56;;;;;;;7.33;3.00;;;;;;;;;;4993077;28;21292;-68
2023/07/01 01:03:28;;;;;;;4.20;3.80;;;;;;;;;;4995079;28;20655;-68
2023/07/01 01:06:01;;;;;;;3.90;3.60;;;;;;;;;;4994288;28;20608;-68
2023/07/01 01:08:35;;;;;;;3.93;3.60;;;;;;;;;;5011233;28;20644;-68
2023/07/01 01:11:06;;;;;;;3.40;3.10;;;;;;;;;;5006508;28;21102;-68
2023/07/01 01:13:34;;;;;;;3.70;3.40;;;;;;;;;;4999354;28;20617;-68
2023/07/01 01:16:03;;;;;;;4.13;3.80;;;;;;;;;;5011386;28;20635;-69
2023/07/01 01:18:32;;;;;;;3.70;3.30;;;;;;;;;;5011050;28;20629;-67
2023/07/01 01:21:01;;;;;;;3.90;3.30;;;;;;;;;;5010898;28;20998;-67
2023/07/01 01:23:34;;;;;;;4.53;3.97;;;;;;;;;;5010612;28;20636;-67
2023/07/01 01:26:06;;;;;;;3.80;3.50;;;;;;;;;;5026697;28;20634;-67
2023/07/01 01:28:36;;;;;;;4.83;4.43;;;;;;;;;;5010828;28;20629;-67
2023/07/01 01:31:04;;;;;;;9.33;2.90;;;;;;;;;;5012422;28;20629;-67
2023/07/01 01:33:33;;;;;;;3.73;3.43;;;;;;;;;;5011016;28;20635;-67
2023/07/01 01:36:07;;;;;;;3.90;3.60;;;;;;;;;;5010914;28;20629;-66
2023/07/01 01:38:36;;;;;;;3.90;3.60;;;;;;;;;;5010945;28;20605;-67
2023/07/01 01:41:07;;;;;;;4.13;3.73;;;;;;;;;;5011204;28;20625;-67
2023/07/01 01:43:43;;;;;;;3.73;3.53;;;;;;;;;;5011259;28;20563;-67
2023/07/01 01:46:11;;;;;;;5.13;3.90;;;;;;;;;;5010732;28;20611;-66
2023/07/01 01:48:40;;;;;;;3.97;3.73;;;;;;;;;;5010784;28;20641;-67
2023/07/01 01:51:09;;;;;;;4.60;3.73;;;;;;;;;;5009239;28;20603;-67
2023/07/01 01:53:39;;;;;;;4.07;3.77;;;;;;;;;;5011297;28;20674;-68
2023/07/01 01:56:07;;;;;;;4.80;4.40;;;;;;;;;;5010343;28;20629;-67
2023/07/01 01:58:35;;;;;;;4.30;3.90;;;;;;;;;;5011078;28;20623;-67
2023/07/01 02:01:05;;;;;;;5.47;4.97;;;;;;;;;;5010456;28;20603;-67
2023/07/01 02:03:33;;;;;;;5.03;4.53;;;;;;;;;;5008401;28;20637;-70
2023/07/01 02:06:02;;;;;;;4.67;4.33;;;;;;;;;;5009252;28;20621;-68
2023/07/01 02:08:30;;;;;;;4.20;3.90;;;;;;;;;;5009906;28;20664;-68
2023/07/01 02:10:58;;;;;;;4.90;4.50;;;;;;;;;;5005633;28;20673;-68
2023/07/01 02:13:26;;;;;;;4.93;4.30;;;;;;;;;;5010904;28;21186;-68
2023/07/01 02:15:55;;;;;;;5.90;4.60;;;;;;;;;;5001605;28;20636;-67
2023/07/01 02:18:24;;;;;;;5.53;5.03;;;;;;;;;;5006584;28;20675;-67
2023/07/01 02:20:52;;;;;;;3.73;3.53;;;;;;;;;;5010438;28;20613;-67
2023/07/01 02:23:21;;;;;;;4.80;4.40;;;;;;;;;;5011137;28;20606;-67
2023/07/01 02:25:49;;;;;;;5.23;4.20;;;;;;;;;;5010525;28;20604;-68
2023/07/01 02:28:17;;;;;;;4.90;4.60;;;;;;;;;;5010988;28;20680;-68
2023/07/01 02:30:45;;;;;;;4.47;4.07;;;;;;;;;;5010411;28;20599;-68
2023/07/01 02:33:14;;;;;;;5.20;4.70;;;;;;;;;;5010780;28;21169;-67
2023/07/01 02:35:43;;;;;;;5.00;4.60;;;;;;;;;;5010629;28;20980;-68
2023/07/01 02:38:13;;;;;;;4.87;4.47;;;;;;;;;;4995234;28;20635;-68
2023/07/01 02:40:41;;;;;;;10.70;5.70;;;;;;;;;;4993426;28;20629;-68
2023/07/01 02:43:10;;;;;;;6.20;4.97;;;;;;;;;;5010079;28;20617;-68
2023/07/01 02:45:40;;;;;;;5.60;5.07;;;;;;;;;;5010234;28;21183;-68
2023/07/01 02:48:08;;;;;;;13.43;4.47;;;;;;;;;;5010122;28;20694;-68
2023/07/01 02:50:36;;;;;;;7.70;5.00;;;;;;;;;;5009664;28;20599;-68
2023/07/01 02:53:06;;;;;;;6.63;4.50;;;;;;;;;;5010550;28;20625;-68
2023/07/01 02:55:34;;;;;;;6.67;5.03;;;;;;;;;;5009571;28;20611;-68
2023/07/01 02:58:02;;;;;;;4.90;4.40;;;;;;;;;;5009946;28;20584;-68
2023/07/01 03:00:31;;;;;;;5.07;4.60;;;;;;;;;;5009588;28;20647;-67
2023/07/01 03:03:06;;;;;;;9.10;5.60;;;;;;;;;;5007899;28;20636;-68
2023/07/01 03:05:34;;;;;;;5.20;4.77;;;;;;;;;;5007897;28;20613;-68
2023/07/01 03:08:03;;;;;;;6.57;5.67;;;;;;;;;;5010202;28;20691;-68
2023/07/01 03:10:32;;;;;;;6.73;5.80;;;;;;;;;;5009260;28;20656;-68
2023/07/01 03:13:00;;;;;;;5.13;4.77;;;;;;;;;;5001902;28;20588;-68
2023/07/01 03:15:29;;;;;;;6.40;5.90;;;;;;;;;;5010551;28;20615;-67
2023/07/01 03:17:57;;;;;;;6.23;5.60;;;;;;;;;;5014185;28;20609;-67
2023/07/01 03:20:26;;;;;;;6.13;4.93;;;;;;;;;;4995554;28;20626;-68
2023/07/01 03:22:56;;;;;;;8.40;5.53;;;;;;;;;;4996109;28;20640;-68
2023/07/01 03:25:24;;;;;;;6.53;5.90;;;;;;;;;;5012016;28;20632;-67
2023/07/01 03:27:54;;;;;;;6.43;5.83;;;;;;;;;;5013245;28;20641;-68
2023/07/01 03:30:30;;;;;;;5.90;5.30;;;;;;;;;;5012423;28;20621;-68
2023/07/01 03:32:59;;;;;;;7.93;5.97;;;;;;;;;;5012548;28;20611;-68
2023/07/01 03:35:27;;;;;;;6.47;5.87;;;;;;;;;;5013674;28;20594;-68
2023/07/01 03:37:55;;;;;;;11.67;5.60;;;;;;;;;;5012815;28;20604;-68
2023/07/01 03:40:23;;;;;;;5.60;5.07;;;;;;;;;;5013147;28;20641;-67
2023/07/01 03:42:52;;;;;;;7.93;5.90;;;;;;;;;;5012451;28;20971;-67
2023/07/01 03:45:21;;;;;;;7.20;5.70;;;;;;;;;;5013369;28;21207;-68
2023/07/01 03:47:50;;;;;;;4.97;4.57;;;;;;;;;;5012656;28;20606;-67
2023/07/01 03:50:18;;;;;;;6.77;5.40;;;;;;;;;;5012908;28;21027;-67
2023/07/01 03:52:46;;;;;;;5.50;4.97;;;;;;;;;;5012864;28;20629;-68
2023/07/01 03:55:14;;;;;;;5.87;5.37;;;;;;;;;;5011825;28;21059;-67
2023/07/01 03:57:43;;;;;;;9.43;5.70;;;;;;;;;;5013422;28;20644;-68
2023/07/01 04:00:17;;;;;;;6.30;5.80;;;;;;;;;;5013732;28;20624;-68
2023/07/01 04:02:47;;;;;;;7.00;5.43;;;;;;;;;;5011732;28;20959;-67
2023/07/01 04:05:16;;;;;;;5.37;5.03;;;;;;;;;;5012583;28;21066;-67
2023/07/01 04:07:45;;;;;;;8.73;5.00;;;;;;;;;;5012309;28;20710;-67
2023/07/01 04:10:13;;;;;;;5.90;5.00;;;;;;;;;;5007605;28;20995;-67
2023/07/01 04:12:42;;;;;;;5.57;5.07;;;;;;;;;;5007838;28;20682;-67
2023/07/01 04:15:10;;;;;;;5.57;5.07;;;;;;;;;;5013060;28;20639;-67
2023/07/01 04:17:41;;;;;;;12.20;7.40;;;;;;;;;;5012974;28;20631;-67
2023/07/01 04:20:11;;;;;;;6.30;5.23;;;;;;;;;;5011022;28;20670;-67
2023/07/01 04:22:39;;;;;;;7.00;6.30;;;;;;;;;;4993017;28;21197;-67
2023/07/01 04:25:08;;;;;;;8.30;6.60;;;;;;;;;;4993520;28;20613;-67
2023/07/01 04:27:36;;;;;;;12.70;6.30;;;;;;;;;;5011110;28;20621;-67
2023/07/01 04:30:06;;;;;;;7.30;6.70;;;;;;;;;;5011972;28;20667;-67
2023/07/01 04:32:34;;;;;;;9.13;7.50;;;;;;;;;;5011010;28;20631;-67
2023/07/01 04:35:02;;;;;;;14.53;8.30;;;;;;;;;;5008500;28;20608;-68
2023/07/01 04:37:32;;;;;;;7.73;6.57;;;;;;;;;;4993034;28;20588;-68
2023/07/01 04:40:00;;;;;;;7.93;6.70;;;;;;;;;;5003914;28;20587;-68
2023/07/01 04:42:29;;;;;;;9.07;8.13;;;;;;;;;;5012348;28;20605;-69
2023/07/01 04:44:57;;;;;;;11.33;9.43;;;;;;;;;;5012376;28;20560;-67
2023/07/01 04:47:25;;;;;;;9.37;8.40;;;;;;;;;;5012224;28;21193;-67
2023/07/01 04:49:53;;;;;;;9.00;8.10;;;;;;;;;;5010731;28;20669;-67
2023/07/01 04:52:22;;;;;;;11.60;8.40;;;;;;;;;;4999748;28;20644;-68
2023/07/01 04:54:52;;;;;;;12.00;8.20;;;;;;;;;;4992134;28;20628;-68
2023/07/01 04:57:20;;;;;;;14.30;9.33;;;;;;;;;;4992566;28;21246;-69
2023/07/01 04:59:48;;;;;;;10.03;8.33;;;;;;;;;;4992544;28;20622;-68
2023/07/01 05:02:16;;;;;;;8.60;7.77;;;;;;;;;;4991750;28;21203;-68
2023/07/01 05:04:45;;;;;;;11.67;8.30;;;;;;;;;;4998567;28;21003;-66
2023/07/01 05:07:13;;;;;;;8.50;7.00;;;;;;;;;;5011943;28;20968;-67
2023/07/01 05:09:41;;;;;;;10.37;7.70;;;;;;;;;;5011436;28;20651;-67
2023/07/01 05:12:11;;;;;;;8.53;7.20;;;;;;;;;;5011243;28;20690;-67
2023/07/01 05:14:39;;;;;;;8.70;7.50;;;;;;;;;;5009723;28;20645;-68
2023/07/01 05:17:08;;;;;;;7.43;5.23;;;;;;;;;;5011672;28;20609;-67
2023/07/01 05:19:37;;;;;;;11.10;5.80;;;;;;;;;;5010987;28;20632;-67
2023/07/01 05:22:05;;;;;;;7.23;5.53;;;;;;;;;;5011795;28;20624;-68
2023/07/01 05:24:33;;;;;;;6.10;5.47;;;;;;;;;;5011417;28;20628;-68
2023/07/01 05:27:01;;;;;;;5.73;5.10;;;;;;;;;;5011765;28;20625;-68
2023/07/01 05:29:31;;;;;;;5.93;4.87;;;;;;;;;;5009838;28;20665;-67
2023/07/01 05:31:59;;;;;;;8.33;5.60;;;;;;;;;;5010164;28;20621;-68
2023/07/01 05:34:27;;;;;;;6.13;4.60;;;;;;;;;;5011003;28;20604;-67
2023/07/01 05:36:56;;;;;;;18.83;5.70;;;;;;;;;;5011059;28;21407;-67
2023/07/01 05:39:25;;;;;;;4.10;3.80;;;;;;;;;;5011230;28;20633;-67
2023/07/01 05:41:53;;;;;;;5.97;3.77;;;;;;;;;;5010255;28;20633;-67
2023/07/01 05:44:21;;;;;;;7.33;4.23;;;;;;;;;;5010963;28;20641;-67
2023/07/01 05:46:51;;;;;;;6.50;3.80;;;;;;;;;;5010283;28;20633;-67
2023/07/01 05:49:19;;;;;;;6.80;4.60;;;;;;;;;;5010889;28;20676;-68
2023/07/01 05:51:47;;;;;;;4.30;4.00;;;;;;;;;;5010461;28;20621;-68
2023/07/01 05:54:16;;;;;;;7.53;3.60;;;;;;;;;;5009991;28;20636;-67
2023/07/01 05:56:44;;;;;;;3.90;3.50;;;;;;;;;;4991172;28;20590;-67
2023/07/01 05:59:13;;;;;;;9.20;3.80;;;;;;;;;;4997789;28;20599;-68
2023/07/01 06:01:41;;;;;;;4.80;3.77;;;;;;;;;;5009802;28;20624;-67
2023/07/01 06:04:10;;;;;;;7.03;3.73;;;;;;;;;;4991271;28;20610;-67
2023/07/01 06:06:39;;;;;;;4.83;3.20;;;;;;;;;;5008993;28;20629;-67
2023/07/01 06:09:08;;;;;;;3.90;2.90;;;;;;;;;;5011514;28;20657;-67
2023/07/01 06:12:45;;;;;;;5.70;3.67;;;;;;;;;;5010653;28;20648;-67
2023/07/01 06:15:13;;;;;;;7.80;3.87;;;;;;;;;;5010992;28;21015;-67
2023/07/01 06:17:41;;;;;;;3.83;3.47;;;;;;;;;;5010810;28;20621;-68
2023/07/01 06:20:11;;;;;;;4.17;3.23;;;;;;;;;;4990298;28;20614;-67
2023/07/01 06:22:41;;;;;;;4.10;3.40;;;;;;;;;;4997984;28;20605;-68
2023/07/01 06:25:10;;;;;;;12.43;3.07;;;;;;;;;;5010685;28;21201;-67
2023/07/01 06:27:38;;;;;;;6.53;3.60;;;;;;;;;;5010121;28;20651;-67
2023/07/01 06:30:07;;;;;;;6.03;3.43;;;;;;;;;;5010854;28;20660;-67
2023/07/01 06:32:35;;;;;;;5.33;3.53;;;;;;;;;;5007478;28;20635;-68
2023/07/01 06:35:04;;;;;;;4.47;2.77;;;;;;;;;;5010318;28;20647;-67
2023/07/01 06:37:33;;;;;;;3.13;2.93;;;;;;;;;;5020267;28;21021;-67
2023/07/01 06:40:02;;;;;;;14.60;3.83;;;;;;;;;;5013429;28;20629;-67
2023/07/01 06:42:30;;;;;;;4.10;3.67;;;;;;;;;;5023186;28;20989;-68
2023/07/01 06:44:58;;;;;;;4.40;3.30;;;;;;;;;;5018859;28;20620;-68
2023/07/01 06:47:26;;;;;;;5.60;3.03;;;;;;;;;;5015961;28;20627;-67
2023/07/01 06:49:55;;;;;;;3.73;3.30;;;;;;;;;;5016718;28;21338;-68
2023/07/01 06:52:23;;;;;;;4.37;3.80;;;;;;;;;;5012901;28;20631;-68
2023/07/01 06:54:52;;;;;;;4.23;3.83;;;;;;;;;;5013397;28;20987;-68
2023/07/01 06:57:21;;;;;;;4.50;3.57;;;;;;;;;;5014648;28;20612;-67
2023/07/01 06:59:49;;;;;;;10.43;3.10;;;;;;;;;;5014132;28;20632;-67
2023/07/01 07:02:18;;;;;;;3.20;3.00;;;;;;;;;;5013753;28;20608;-68
2023/07/01 07:04:47;;;;;;;4.23;3.60;;;;;;;;;;5009974;28;20637;-67
2023/07/01 07:07:15;;;;;;;5.00;3.07;;;;;;;;;;5013590;28;20651;-67
2023/07/01 07:09:43;;;;;;;3.27;3.07;;;;;;;;;;5012533;28;20683;-68
2023/07/01 07:12:12;;;;;;;5.40;3.73;;;;;;;;;;5011938;28;20647;-68
2023/07/01 07:14:41;;;;;;;5.77;4.30;;;;;;;;;;5012543;28;21012;-68
2023/07/01 07:17:09;;;;;;;3.60;3.07;;;;;;;;;;5011929;28;20710;-68
2023/07/01 07:19:38;;;;;;;7.10;3.77;;;;;;;;;;5013084;28;20989;-68
2023/07/01 07:22:06;;;;;;;4.10;3.70;;;;;;;;;;5013065;28;20690;-67
2023/07/01 07:24:35;;;;;;;5.63;3.53;;;;;;;;;;5012224;28;20629;-68
2023/07/01 07:27:03;;;;;;;4.20;3.40;;;;;;;;;;5012552;28;20621;-68
2023/07/01 07:29:33;;;;;;;5.03;3.77;;;;;;;;;;5011593;28;20637;-69
2023/07/01 07:32:02;;;;;;;4.13;3.57;;;;;;;;;;5013671;28;20617;-69
2023/07/01 07:34:31;;;;;;;6.87;3.10;;;;;;;;;;5009008;28;20639;-68
2023/07/01 07:36:59;;;;;;;3.67;2.90;;;;;;;;;;5004190;28;20982;-69
2023/07/01 07:39:27;;;;;;;4.23;3.13;;;;;;;;;;5013297;28;20625;-67
2023/07/01 07:41:55;;;;;;;3.47;2.77;;;;;;;;;;5014179;28;20625;-67
2023/07/01 07:44:24;;;;;;;3.73;3.23;;;;;;;;;;5012521;28;21006;-68
2023/07/01 07:46:53;;;;;;;4.70;3.77;;;;;;;;;;5013232;28;20621;-67
2023/07/01 07:49:21;;;;;;;4.20;3.40;;;;;;;;;;5011541;28;21231;-67
2023/07/01 07:51:49;;;;;;;3.60;3.00;;;;;;;;;;5013016;28;20735;-67
2023/07/01 07:54:18;;;;;;;4.63;3.40;;;;;;;;;;5012082;28;21240;-67
2023/07/01 07:56:46;;;;;;;5.07;3.33;;;;;;;;;;5006779;28;20633;-69
2023/07/01 07:59:15;;;;;;;3.43;3.13;;;;;;;;;;5011962;28;20627;-67
2023/07/01 08:01:43;;;;;;;5.57;3.70;;;;;;;;;;5011058;28;20628;-67
2023/07/01 08:04:12;;;;;;;6.60;3.47;;;;;;;;;;5010583;28;20621;-68
2023/07/01 08:06:41;;;;;;;2.90;2.80;;;;;;;;;;5013447;28;21023;-68
2023/07/01 08:09:09;;;;;;;6.70;3.40;;;;;;;;;;5012666;28;20621;-67
2023/07/01 08:11:37;;;;;;;3.73;3.23;;;;;;;;;;5002778;28;20673;-68
2023/07/01 08:14:05;;;;;;;4.20;3.60;;;;;;;;;;5005393;28;20983;-66
2023/07/01 08:16:33;;;;;;;5.40;3.43;;;;;;;;;;5008190;28;21179;-67
2023/07/01 08:19:01;;;;;;;5.63;3.20;;;;;;;;;;5012101;28;20659;-68
2023/07/01 08:21:33;;;;;;;4.00;3.60;;;;;;;;;;5012492;28;20625;-67
2023/07/01 08:24:01;;;;;;;3.70;3.37;;;;;;;;;;5012072;28;20613;-67
2023/07/01 08:26:29;;;;;;;12.07;3.83;;;;;;;;;;5012869;28;20633;-68
2023/07/01 08:28:57;;;;;;;6.60;4.03;;;;;;;;;;5012543;28;20625;-69
2023/07/01 08:31:26;;;;;;;3.90;3.60;;;;;;;;;;5012372;28;20667;-68
2023/07/01 08:33:54;;;;;;;3.80;3.60;;;;;;;;;;5012375;28;20721;-68
2023/07/01 08:36:22;;;;;;;3.33;3.10;;;;;;;;;;5012481;28;21079;-68
2023/07/01 08:38:52;;;;;;;6.97;4.37;;;;;;;;;;5011914;28;20679;-67
2023/07/01 08:41:23;;;;;;;3.63;3.30;;;;;;;;;;5012238;28;20640;-67
2023/07/01 08:43:53;;;;;;;4.07;3.50;;;;;;;;;;5010920;28;20611;-67
2023/07/01 08:46:23;;;;;;;4.23;3.93;;;;;;;;;;5010310;28;20615;-67
2023/07/01 08:48:52;;;;;;;7.20;4.53;;;;;;;;;;5011254;28;20651;-67
2023/07/01 08:51:22;;;;;;;4.07;3.63;;;;;;;;;;5012193;28;20724;-67
2023/07/01 08:53:52;;;;;;;4.43;4.10;;;;;;;;;;5012452;28;20960;-67
2023/07/01 08:56:21;;;;;;;6.80;5.00;;;;;;;;;;5007459;28;20667;-67
2023/07/01 08:58:50;;;;;;;4.80;4.50;;;;;;;;;;4990258;28;20606;-67
2023/07/01 09:01:18;;;;;;;3.90;3.57;;;;;;;;;;4990279;28;20626;-67
2023/07/01 09:03:48;;;;;;;4.40;4.20;;;;;;;;;;5003815;28;20613;-67
2023/07/01 09:06:16;;;;;;;4.20;4.00;;;;;;;;;;5009063;28;20621;-66
2023/07/01 09:08:44;;;;;;;4.17;3.87;;;;;;;;;;5007158;28;20645;-66
2023/07/01 09:11:15;;;;;;;4.27;3.87;;;;;;;;;;5001157;28;20673;-66
2023/07/01 09:13:43;;;;;;;6.03;4.20;;;;;;;;;;5011271;28;20607;-65
2023/07/01 09:16:12;;;;;;;3.97;3.77;;;;;;;;;;5005366;28;20625;-66
2023/07/01 09:18:43;;;;;;;4.10;3.90;;;;;;;;;;5011038;28;20617;-66
2023/07/01 09:21:18;;;;;;;4.33;4.00;;;;;;;;;;5011720;28;20597;-66
2023/07/01 09:23:46;;;;;;;4.40;4.10;;;;;;;;;;5006462;28;21195;-65
2023/07/01 09:26:19;;;;;;;4.87;4.47;;;;;;;;;;5007621;28;20640;-66
2023/07/01 09:28:49;;;;;;;4.30;4.10;;;;;;;;;;5009783;28;21147;-66
2023/07/01 09:31:17;;;;;;;4.40;4.10;;;;;;;;;;5001213;28;20653;-66
2023/07/01 09:33:58;;;;;;;4.23;3.87;;;;;;;;;;4998423;28;20625;-66
2023/07/01 09:36:26;;;;;;;4.33;4.00;;;;;;;;;;5011530;28;20605;-66
2023/07/01 09:38:55;;;;;;;11.10;3.73;;;;;;;;;;5010703;28;20616;-67
2023/07/01 09:41:26;;;;;;;4.33;4.03;;;;;;;;;;5010653;28;21195;-66
2023/07/01 09:43:55;;;;;;;4.23;3.83;;;;;;;;;;5000692;28;20616;-66
2023/07/01 09:46:23;;;;;;;4.23;3.93;;;;;;;;;;5009240;28;20639;-66
2023/07/01 09:48:53;;;;;;;3.87;3.67;;;;;;;;;;5010071;28;21015;-67
2023/07/01 09:51:21;;;;;;;3.60;3.40;;;;;;;;;;5011287;28;20660;-67
2023/07/01 09:53:51;;;;;;;4.40;4.00;;;;;;;;;;5006287;28;21155;-66
2023/07/01 09:56:20;;;;;;;3.73;3.37;;;;;;;;;;5000562;28;20648;-66
2023/07/01 09:58:51;;;;;;;3.77;3.60;;;;;;;;;;5008190;28;20625;-67
2023/07/01 10:01:19;;;;;;;4.40;4.10;;;;;;;;;;5010951;28;20627;-66
2023/07/01 10:03:48;;;;;;;3.50;3.20;;;;;;;;;;5009536;28;21175;-66
2023/07/01 10:06:16;;;;;;;4.53;4.20;;;;;;;;;;5010169;28;20631;-66
2023/07/01 10:08:44;;;;;;;3.57;3.37;;;;;;;;;;5008051;28;20638;-66
2023/07/01 10:11:15;;;;;;;4.03;3.53;;;;;;;;;;5008549;28;20673;-66
2023/07/01 10:13:45;;;;;;;4.43;4.03;;;;;;;;;;5011206;28;20633;-66
2023/07/01 10:16:15;;;;;;;4.37;3.97;;;;;;;;;;5002064;28;21037;-66
2023/07/01 10:18:43;;;;;;;4.07;3.87;;;;;;;;;;5009403;28;20635;-67
2023/07/01 10:21:28;;;;;;;4.13;3.73;;;;;;;;;;5006631;28;20635;-67
2023/07/01 10:23:57;;;;;;;4.13;3.53;;;;;;;;;;4996926;28;20605;-67
2023/07/01 10:26:36;;;;;;;4.70;4.20;;;;;;;;;;5007067;28;20650;-67
2023/07/01 10:29:23;;;;;;;3.77;3.57;;;;;;;;;;5010477;28;20636;-67
2023/07/01 10:32:06;;;;;;;4.47;4.17;;;;;;;;;;5004580;28;20645;-67
2023/07/01 10:34:49;;;;;;;3.97;3.57;;;;;;;;;;4999073;28;20633;-67
2023/07/01 10:37:19;;;;;;;7.10;3.77;;;;;;;;;;5010260;28;20690;-67
2023/07/01 10:39:47;;;;;;;6.43;4.00;;;;;;;;;;5001400;28;20651;-67
2023/07/01 10:42:31;;;;;;;3.97;3.70;;;;;;;;;;4998851;28;21209;-67
2023/07/01 10:45:14;;;;;;;3.77;3.43;;;;;;;;;;5010757;28;20577;-67
2023/07/01 10:48:05;;;;;;;3.70;3.40;;;;;;;;;;5010438;28;20679;-67
2023/07/01 10:50:34;;;;;;;3.57;3.37;;;;;;;;;;5009654;28;20625;-67
2023/07/01 10:53:04;;;;;;;4.10;3.90;;;;;;;;;;5009792;28;21000;-67
2023/07/01 10:55:36;;;;;;;3.27;3.17;;;;;;;;;;5008668;28;21006;-67
2023/07/01 10:58:17;;;;;;;4.10;3.20;;;;;;;;;;5010509;28;20597;-67
2023/07/01 11:00:45;;;;;;;6.57;3.97;;;;;;;;;;5009156;28;20734;-67
2023/07/01 11:03:28;;;;;;;3.70;3.50;;;;;;;;;;4990369;28;20618;-67
2023/07/01 11:05:58;;;;;;;3.73;3.37;;;;;;;;;;4993585;28;20636;-67
2023/07/01 11:08:28;;;;;;;3.93;3.63;;;;;;;;;;5006778;28;20628;-66
2023/07/01 11:10:56;;;;;;;3.67;3.47;;;;;;;;;;5008951;28;20661;-67
2023/07/01 11:13:25;;;;;;;3.80;3.43;;;;;;;;;;5009533;28;20691;-67
2023/07/01 11:16:02;;;;;;;3.70;3.47;;;;;;;;;;5003110;28;20633;-67
2023/07/01 11:18:41;;;;;;;4.10;3.70;;;;;;;;;;5007202;28;21231;-67
2023/07/01 11:21:10;;;;;;;3.80;3.50;;;;;;;;;;5009529;28;20708;-67
2023/07/01 11:23:43;;;;;;;3.70;3.40;;;;;;;;;;5010480;28;20620;-66
2023/07/01 11:26:11;;;;;;;3.40;3.20;;;;;;;;;;5005388;28;20612;-66
2023/07/01 11:28:39;;;;;;;3.43;3.13;;;;;;;;;;5009969;28;20685;-66
2023/07/01 11:31:13;;;;;;;4.33;3.10;;;;;;;;;;5006013;28;20647;-66
2023/07/01 11:33:44;;;;;;;3.20;3.10;;;;;;;;;;5010521;28;20718;-66
2023/07/01 11:36:14;;;;;;;7.00;3.40;;;;;;;;;;5007548;28;20601;-66
2023/07/01 11:38:46;;;;;;;3.37;3.17;;;;;;;;;;5021261;28;20650;-67
2023/07/01 11:41:15;;;;;;;3.60;3.30;;;;;;;;;;5009754;28;20629;-67
2023/07/01 11:43:43;;;;;;;4.53;3.30;;;;;;;;;;5013117;28;20624;-66
2023/07/01 11:46:12;;;;;;;3.40;3.20;;;;;;;;;;5012672;28;20636;-67
2023/07/01 11:48:41;;;;;;;5.73;3.67;;;;;;;;;;5007651;28;20648;-67
2023/07/01 11:51:09;;;;;;;3.30;3.10;;;;;;;;;;5010947;28;20633;-67
2023/07/01 11:53:55;;;;;;;3.17;3.07;;;;;;;;;;5012367;28;20669;-67
2023/07/01 11:56:25;;;;;;;3.37;3.17;;;;;;;;;;5012469;28;20624;-66
2023/07/01 11:58:53;;;;;;;3.67;3.20;;;;;;;;;;5011495;28;20632;-67
2023/07/01 12:01:24;;;;;;;3.80;3.00;;;;;;;;;;5009758;28;20635;-67
2023/07/01 12:03:53;;;;;;;4.00;3.80;;;;;;;;;;5010686;28;20647;-67
2023/07/01 12:06:22;;;;;;;5.97;3.17;;;;;;;;;;5013095;28;20628;-67
2023/07/01 12:08:51;;;;;;;4.13;3.40;;;;;;;;;;5012884;28;20639;-68
2023/07/01 12:11:20;;;;;;;3.40;3.20;;;;;;;;;;5013126;28;20645;-66
2023/07/01 12:13:50;;;;;;;3.40;3.20;;;;;;;;;;5011054;28;20660;-67
2023/07/01 12:16:19;;;;;;;3.30;3.10;;;;;;;;;;5011625;28;20633;-67
2023/07/01 12:18:47;;;;;;;4.20;2.90;;;;;;;;;;5007851;28;21224;-67
2023/07/01 12:21:15;;;;;;;2.90;2.70;;;;;;;;;;5013284;28;20613;-66
2023/07/01 12:23:44;;;;;;;3.40;3.10;;;;;;;;;;5009843;28;20648;-67
2023/07/01 12:26:12;;;;;;;2.90;2.80;;;;;;;;;;5009677;28;20633;-66
2023/07/01 12:28:41;;;;;;;3.10;3.00;;;;;;;;;;5010506;28;20636;-67
2023/07/01 12:31:12;;;;;;;3.23;3.03;;;;;;;;;;5010340;28;20631;-67
2023/07/01 12:33:40;;;;;;;4.70;3.23;;;;;;;;;;5012125;28;20651;-67
2023/07/01 12:36:08;;;;;;;3.40;3.27;;;;;;;;;;5013077;28;20629;-67
2023/07/01 12:38:37;;;;;;;3.17;3.03;;;;;;;;;;5009185;28;21069;-67
2023/07/01 12:41:05;;;;;;;3.67;3.43;;;;;;;;;;5012257;28;20621;-67
2023/07/01 12:43:33;;;;;;;3.43;3.17;;;;;;;;;;5010275;28;20650;-67
2023/07/01 12:46:02;;;;;;;3.40;3.20;;;;;;;;;;5012571;28;21193;-67
2023/07/01 12:48:31;;;;;;;2.93;2.73;;;;;;;;;;5005796;28;20665;-67
2023/07/01 12:50:59;;;;;;;3.47;3.00;;;;;;;;;;5002904;28;20601;-67
2023/07/01 12:53:28;;;;;;;3.60;3.30;;;;;;;;;;4992561;28;20658;-68
2023/07/01 12:55:56;;;;;;;3.77;3.50;;;;;;;;;;4992525;28;20964;-68
2023/07/01 12:58:24;;;;;;;3.53;3.10;;;;;;;;;;4993122;28;20630;-68
2023/07/01 13:00:53;;;;;;;3.60;3.30;;;;;;;;;;4990788;28;20621;-67
2023/07/01 13:03:21;;;;;;;3.63;3.43;;;;;;;;;;4990714;28;20614;-66
2023/07/01 13:05:52;;;;;;;3.30;3.10;;;;;;;;;;4991774;28;20613;-67
2023/07/01 13:08:20;;;;;;;3.20;3.10;;;;;;;;;;4992569;28;20578;-68
2023/07/01 13:10:48;;;;;;;3.07;2.97;;;;;;;;;;4995022;28;20665;-67
2023/07/01 13:13:16;;;;;;;3.07;2.97;;;;;;;;;;5012078;28;20653;-67
2023/07/01 13:15:46;;;;;;;3.40;3.30;;;;;;;;;;5012171;28;20613;-67
2023/07/01 13:18:18;;;;;;;3.40;3.30;;;;;;;;;;5012233;28;20619;-67
2023/07/01 13:20:46;;;;;;;3.80;3.20;;;;;;;;;;5011193;28;20581;-67
2023/07/01 13:23:15;;;;;;;2.90;2.80;;;;;;;;;;5012090;28;20623;-66
2023/07/01 13:25:44;;;;;;;3.20;2.80;;;;;;;;;;5009485;28;20649;-65
2023/07/01 13:28:12;;;;;;;3.03;2.83;;;;;;;;;;5010268;28;20674;-66
2023/07/01 13:30:47;;;;;;;3.17;2.97;;;;;;;;;;5011829;28;20974;-66
2023/07/01 13:33:22;;;;;;;2.77;2.67;;;;;;;;;;5011702;28;20636;-67
2023/07/01 13:35:50;;;;;;;10.10;3.30;;;;;;;;;;5011529;28;20584;-67
2023/07/01 13:38:20;;;;;;;3.03;2.93;;;;;;;;;;5012044;28;21059;-67
2023/07/01 13:40:49;;;;;;;2.93;2.83;;;;;;;;;;5011562;28;20970;-65
2023/07/01 13:43:19;;;;;;;3.43;3.23;;;;;;;;;;5011557;28;21202;-66
2023/07/01 13:45:47;;;;;;;5.80;3.20;;;;;;;;;;5011024;28;20624;-66
2023/07/01 13:48:23;;;;;;;3.10;2.80;;;;;;;;;;5010199;28;20965;-66
2023/07/01 13:50:52;;;;;;;4.77;3.17;;;;;;;;;;5011536;28;20624;-66
2023/07/01 13:53:21;;;;;;;2.97;2.87;;;;;;;;;;5011464;28;20657;-66
2023/07/01 13:55:50;;;;;;;3.87;2.90;;;;;;;;;;5011442;28;20613;-65
2023/07/01 13:58:18;;;;;;;3.50;3.30;;;;;;;;;;5011543;28;20661;-67
2023/07/01 14:00:49;;;;;;;2.70;2.60;;;;;;;;;;5011059;28;20965;-66
2023/07/01 14:03:26;;;;;;;2.47;2.37;;;;;;;;;;5010231;28;20585;-66
2023/07/01 14:05:55;;;;;;;2.43;2.30;;;;;;;;;;5010635;28;20605;-66
2023/07/01 14:08:26;;;;;;;3.37;2.73;;;;;;;;;;5010506;28;20623;-66
2023/07/01 14:10:54;;;;;;;2.60;2.50;;;;;;;;;;5001808;28;20668;-66
2023/07/01 14:13:28;;;;;;;3.93;2.77;;;;;;;;;;5010268;28;20671;-66
2023/07/01 14:15:57;;;;;;;3.37;2.87;;;;;;;;;;5011197;28;20589;-66
2023/07/01 14:18:26;;;;;;;2.97;2.67;;;;;;;;;;5010604;28;20617;-65
2023/07/01 14:20:56;;;;;;;2.40;2.30;;;;;;;;;;5011099;28;20612;-67
2023/07/01 14:23:28;;;;;;;2.43;2.27;;;;;;;;;;5010848;28;20686;-66
2023/07/01 14:25:57;;;;;;;2.30;2.20;;;;;;;;;;5011473;28;20576;-66
2023/07/01 14:28:25;;;;;;;2.60;2.40;;;;;;;;;;5009030;28;20620;-66
2023/07/01 14:31:00;;;;;;;2.37;2.27;;;;;;;;;;5009710;28;20617;-66
2023/07/01 14:33:33;;;;;;;2.53;2.43;;;;;;;;;;5010213;28;20632;-67
2023/07/01 14:36:01;;;;;;;2.37;2.10;;;;;;;;;;5009947;28;20599;-66
2023/07/01 14:38:39;;;;;;;1.97;1.87;;;;;;;;;;5010233;28;20628;-66
2023/07/01 14:41:25;;;;;;;3.53;3.30;;;;;;;;;;5011050;28;20585;-66
2023/07/01 14:43:55;;;;;;;2.53;1.97;;;;;;;;;;5010376;28;20598;-66
2023/07/01 14:46:23;;;;;;;2.70;1.97;;;;;;;;;;5010702;28;20625;-67
2023/07/01 14:48:52;;;;;;;1.80;1.70;;;;;;;;;;5010030;28;20655;-67
2023/07/01 14:51:20;;;;;;;1.87;1.73;;;;;;;;;;5010834;28;20588;-67
2023/07/01 14:53:51;;;;;;;1.30;1.30;;;;;;;;;;5010653;28;20652;-67
2023/07/01 14:56:20;;;;;;;1.60;1.50;;;;;;;;;;5010365;28;20597;-67
2023/07/01 14:58:49;;;;;;;4.60;2.07;;;;;;;;;;5011035;28;20612;-67